createdAt,value
2024-03-05T00:01:01.383Z,6.85
2024-03-05T00:03:31.872Z,6.50
2024-03-05T00:06:00.347Z,6.35
2024-03-05T00:08:28.987Z,6.75
2024-03-05T00:10:58.878Z,6.45
2024-03-05T00:13:27.439Z,6.57
2024-03-05T00:15:56.126Z,7.13
2024-03-05T00:18:24.757Z,6.63
2024-03-05T00:20:54.955Z,6.60
2024-03-05T00:23:23.652Z,6.72
2024-03-05T00:25:52.081Z,6.53
2024-03-05T00:28:22.020Z,6.45
2024-03-05T00:30:50.456Z,5.80
2024-03-05T00:33:19.183Z,6.80
2024-03-05T00:35:48.324Z,6.07
2024-03-05T00:38:22.170Z,6.25
2024-03-05T00:40:56.865Z,6.30
2024-03-05T00:43:26.699Z,6.68
2024-03-05T00:45:55.222Z,6.15
2024-03-05T00:48:23.599Z,6.95
2024-03-05T00:50:52.372Z,6.88
2024-03-05T00:53:21.677Z,5.93
2024-03-05T00:55:50.066Z,6.38
2024-03-05T00:58:18.521Z,5.95
2024-03-05T01:00:48.437Z,6.18
2024-03-05T01:03:16.863Z,6.80
2024-03-05T01:05:45.399Z,6.05
2024-03-05T01:08:13.817Z,6.25
2024-03-05T01:10:46.421Z,6.82
2024-03-05T01:13:15.545Z,6.18
2024-03-05T01:15:44.010Z,6.40
2024-03-05T01:18:14.083Z,6.15
2024-03-05T01:20:43.347Z,6.40
2024-03-05T01:23:13.167Z,6.45
2024-03-05T01:25:41.714Z,6.05
2024-03-05T01:28:10.147Z,6.03
2024-03-05T01:30:41.153Z,6.38
2024-03-05T01:33:10.587Z,5.80
2024-03-05T01:35:43.041Z,6.68
2024-03-05T01:38:11.472Z,6.35
2024-03-05T01:40:40.261Z,6.10
2024-03-05T01:43:09.234Z,6.07
2024-03-05T01:45:37.724Z,5.95
2024-03-05T01:48:07.413Z,5.85
2024-03-05T01:50:37.282Z,6.03
2024-03-05T01:53:10.255Z,5.93
2024-03-05T01:55:41.661Z,5.45
2024-03-05T01:58:11.320Z,5.63
2024-03-05T02:00:40.436Z,6.20
2024-03-05T02:03:12.360Z,5.63
2024-03-05T02:05:54.867Z,6.10
2024-03-05T02:08:25.597Z,5.63
2024-03-05T02:10:54.139Z,5.90
2024-03-05T02:13:22.844Z,6.55
2024-03-05T02:15:51.605Z,5.93
2024-03-05T02:18:20.012Z,6.10
2024-03-05T02:20:48.440Z,6.15
2024-03-05T02:23:18.326Z,5.18
2024-03-05T02:25:47.898Z,5.60
2024-03-05T02:28:16.914Z,6.03
2024-03-05T02:30:45.887Z,5.18
2024-03-05T02:33:15.403Z,5.78
2024-03-05T02:35:45.425Z,5.53
2024-03-05T02:38:13.763Z,5.82
2024-03-05T02:40:43.931Z,5.57
2024-03-05T02:43:12.425Z,5.70
2024-03-05T02:45:40.711Z,5.93
2024-03-05T02:48:10.306Z,5.63
2024-03-05T02:50:38.650Z,5.82
2024-03-05T02:53:07.351Z,5.53
2024-03-05T02:55:39.209Z,4.85
2024-03-05T02:58:11.047Z,5.38
2024-03-05T03:00:39.819Z,5.88
2024-03-05T03:03:08.507Z,5.57
2024-03-05T03:05:37.101Z,5.32
2024-03-05T03:08:06.165Z,5.82
2024-03-05T03:10:34.834Z,5.38
2024-03-05T03:13:03.295Z,5.65
2024-03-05T03:15:33.644Z,5.57
2024-03-05T03:18:02.062Z,5.32
2024-03-05T03:20:31.142Z,5.30
2024-03-05T03:22:59.615Z,5.28
2024-03-05T03:28:00.556Z,5.20
2024-03-05T03:30:30.790Z,5.50
2024-03-05T03:33:00.495Z,5.07
2024-03-05T03:35:29.018Z,5.50
2024-03-05T03:37:57.373Z,4.90
2024-03-05T03:40:25.858Z,5.13
2024-03-05T03:42:54.327Z,5.53
2024-03-05T03:45:22.776Z,5.38
2024-03-05T03:47:51.461Z,4.97
2024-03-05T03:50:21.415Z,5.10
2024-03-05T03:52:50.495Z,4.82
2024-03-05T03:55:19.289Z,5.47
2024-03-05T03:57:49.122Z,4.97
2024-03-05T04:00:19.845Z,5.28
2024-03-05T04:02:48.836Z,5.03
2024-03-05T04:05:17.398Z,4.85
2024-03-05T04:07:47.745Z,4.97
2024-03-05T04:10:17.073Z,5.18
2024-03-05T04:12:46.084Z,5.22
2024-03-05T04:15:14.765Z,4.68
2024-03-05T04:17:45.284Z,4.93
2024-03-05T04:20:15.896Z,4.88
2024-03-05T04:22:45.841Z,4.70
2024-03-05T04:25:15.669Z,5.10
2024-03-05T04:27:47.401Z,4.93
2024-03-05T04:30:16.708Z,5.07
2024-03-05T04:32:58.797Z,4.90
2024-03-05T04:35:30.446Z,4.82
2024-03-05T04:38:00.648Z,5.10
2024-03-05T04:40:31.182Z,4.75
2024-03-05T04:42:59.772Z,5.00
2024-03-05T04:45:28.224Z,5.13
2024-03-05T04:47:56.962Z,5.45
2024-03-05T04:50:25.388Z,5.20
2024-03-05T04:52:55.038Z,5.18
2024-03-05T04:55:25.280Z,4.88
2024-03-05T04:57:53.812Z,4.72
2024-03-05T05:00:22.934Z,5.55
2024-03-05T05:02:53.660Z,4.72
2024-03-05T05:05:26.380Z,5.07
2024-03-05T05:07:57.421Z,4.78
2024-03-05T05:10:27.597Z,4.53
2024-03-05T05:12:56.572Z,4.88
2024-03-05T05:15:25.993Z,4.68
2024-03-05T05:17:54.890Z,4.78
2024-03-05T05:20:23.657Z,4.35
2024-03-05T05:22:52.475Z,5.22
2024-03-05T05:25:23.086Z,5.07
2024-03-05T05:27:53.839Z,4.75
2024-03-05T05:30:24.707Z,5.10
2024-03-05T05:32:53.344Z,4.65
2024-03-05T05:35:21.966Z,4.82
2024-03-05T05:37:50.469Z,4.55
2024-03-05T05:40:21.420Z,4.90
2024-03-05T05:42:52.575Z,4.90
2024-03-05T05:45:23.137Z,4.22
2024-03-05T05:47:54.854Z,4.70
2024-03-05T05:50:26.459Z,4.75
2024-03-05T05:52:55.658Z,4.95
2024-03-05T05:55:26.503Z,4.03
2024-03-05T05:57:58.237Z,4.25
2024-03-05T06:00:37.787Z,4.47
2024-03-05T06:03:09.011Z,4.32
2024-03-05T06:05:38.739Z,4.55
2024-03-05T06:08:11.752Z,4.65
2024-03-05T06:10:42.511Z,4.43
2024-03-05T06:13:12.731Z,4.78
2024-03-05T06:15:41.404Z,5.43
2024-03-05T06:18:10.040Z,4.40
2024-03-05T06:20:39.950Z,5.07
2024-03-05T06:23:08.501Z,5.35
2024-03-05T06:25:37.120Z,58.75
2024-03-05T06:28:06.357Z,464.92
2024-03-05T06:30:36.080Z,381.40
2024-03-05T06:33:09.923Z,318.27
2024-03-05T06:35:39.721Z,277.35
2024-03-05T06:38:09.565Z,180.05
2024-03-05T06:40:38.547Z,125.43
2024-03-05T06:43:14.229Z,72.03
2024-03-05T06:45:44.693Z,62.03
2024-03-05T06:48:17.656Z,48.58
2024-03-05T06:50:53.299Z,33.10
2024-03-05T06:53:39.690Z,20.73
2024-03-05T06:56:26.232Z,21.80
2024-03-05T06:58:54.725Z,19.13
2024-03-05T07:01:24.785Z,18.48
2024-03-05T07:03:53.189Z,17.83
2024-03-05T07:06:22.483Z,17.60
2024-03-05T07:08:52.796Z,16.05
2024-03-05T07:11:21.737Z,15.25
2024-03-05T07:13:52.866Z,14.20
2024-03-05T07:16:22.425Z,10.60
2024-03-05T07:18:55.490Z,8.85
2024-03-05T07:21:26.473Z,9.13
2024-03-05T07:23:56.214Z,8.48
2024-03-05T07:26:25.556Z,8.27
2024-03-05T07:28:54.452Z,9.32
2024-03-05T07:31:25.097Z,8.25
2024-03-05T07:33:55.750Z,7.63
2024-03-05T07:36:24.170Z,7.15
2024-03-05T07:38:53.807Z,7.30
2024-03-05T07:41:29.791Z,7.30
2024-03-05T07:44:04.560Z,7.22
2024-03-05T07:46:34.401Z,6.93
2024-03-05T07:49:05.113Z,7.25
2024-03-05T07:51:41.175Z,7.72
2024-03-05T07:54:14.986Z,6.90
2024-03-05T07:56:44.163Z,6.55
2024-03-05T07:59:13.321Z,7.00
2024-03-05T08:01:42.277Z,6.88
2024-03-05T08:04:12.321Z,7.07
2024-03-05T08:06:40.910Z,7.78
2024-03-05T08:09:09.665Z,6.78
2024-03-05T08:11:38.203Z,6.10
2024-03-05T08:14:08.603Z,6.22
2024-03-05T08:16:39.562Z,5.70
2024-03-05T08:19:08.695Z,6.20
2024-03-05T08:21:38.382Z,5.97
2024-03-05T08:24:07.624Z,6.13
2024-03-05T08:26:36.029Z,6.10
2024-03-05T08:29:04.969Z,6.43
2024-03-05T08:31:33.436Z,5.88
2024-03-05T08:34:05.364Z,5.60
2024-03-05T08:36:37.417Z,6.20
2024-03-05T08:39:18.539Z,6.13
2024-03-05T08:41:48.184Z,5.68
2024-03-05T08:44:18.602Z,5.78
2024-03-05T08:46:47.191Z,5.80
2024-03-05T08:49:15.629Z,6.15
2024-03-05T08:51:46.236Z,5.25
2024-03-05T08:54:18.036Z,5.55
2024-03-05T08:56:46.777Z,5.80
2024-03-05T08:59:15.337Z,6.00
2024-03-05T09:01:43.856Z,6.00
2024-03-05T09:04:12.375Z,5.80
2024-03-05T09:06:41.725Z,5.47
2024-03-05T09:09:12.258Z,5.85
2024-03-05T09:11:42.243Z,5.55
2024-03-05T09:14:11.373Z,6.18
2024-03-05T09:16:40.203Z,5.35
2024-03-05T09:19:10.707Z,5.82
2024-03-05T09:21:39.056Z,5.55
2024-03-05T09:24:08.580Z,6.00
2024-03-05T09:26:37.760Z,5.70
2024-03-05T09:29:07.570Z,5.50
2024-03-05T09:31:36.647Z,5.97
2024-03-05T09:34:05.129Z,5.40
2024-03-05T09:36:36.784Z,6.30
2024-03-05T09:39:10.679Z,5.68
2024-03-05T09:41:44.080Z,5.45
2024-03-05T09:44:14.991Z,5.30
2024-03-05T09:46:46.805Z,5.60
2024-03-05T09:49:23.049Z,5.90
2024-03-05T09:51:54.412Z,6.25
2024-03-05T09:54:23.780Z,5.65
2024-03-05T09:56:55.629Z,5.72
2024-03-05T09:59:25.608Z,5.25
2024-03-05T10:01:54.170Z,5.38
2024-03-05T10:04:27.942Z,5.53
2024-03-05T10:06:56.518Z,5.30
2024-03-05T10:09:26.131Z,5.55
2024-03-05T10:11:54.738Z,5.70
2024-03-05T10:14:25.813Z,5.40
2024-03-05T10:17:02.921Z,5.10
2024-03-05T10:19:44.656Z,5.00
2024-03-05T10:22:13.660Z,5.15
2024-03-05T10:24:42.109Z,5.22
2024-03-05T10:27:15.450Z,4.88
2024-03-05T10:29:45.483Z,5.28
2024-03-05T10:32:19.069Z,5.18
2024-03-05T10:34:47.789Z,4.90
2024-03-05T10:37:16.212Z,4.90
2024-03-05T10:39:44.989Z,4.53
2024-03-05T10:42:15.011Z,5.30
2024-03-05T10:44:45.702Z,4.55
2024-03-05T10:47:14.636Z,5.00
2024-03-05T10:49:46.408Z,4.57
2024-03-05T10:52:15.626Z,5.13
2024-03-05T10:54:46.639Z,4.70
2024-03-05T10:57:15.177Z,4.47
2024-03-05T10:59:48.946Z,5.20
2024-03-05T11:02:19.104Z,4.53
2024-03-05T11:04:48.976Z,5.03
2024-03-05T11:07:20.159Z,4.63
2024-03-05T11:09:49.774Z,4.43
2024-03-05T11:12:20.427Z,4.38
2024-03-05T11:14:50.928Z,4.63
2024-03-05T11:17:19.578Z,4.28
2024-03-05T11:19:49.952Z,4.50
2024-03-05T11:22:24.437Z,4.53
2024-03-05T11:24:58.235Z,4.07
2024-03-05T11:27:27.471Z,4.30
2024-03-05T11:30:09.861Z,4.30
2024-03-05T11:32:39.066Z,4.20
2024-03-05T11:35:12.233Z,4.68
2024-03-05T11:37:52.361Z,4.47
2024-03-05T11:40:23.775Z,4.50
2024-03-05T11:42:55.273Z,4.30
2024-03-05T11:45:50.780Z,4.13
2024-03-05T11:48:21.083Z,4.18
2024-03-05T11:50:50.108Z,4.57
2024-03-05T11:53:18.469Z,4.10
2024-03-05T11:55:48.036Z,4.00
2024-03-05T11:58:16.517Z,4.05
2024-03-05T12:00:46.245Z,4.43
2024-03-05T12:03:19.997Z,4.40
2024-03-05T12:05:48.378Z,4.00
2024-03-05T12:08:18.408Z,4.15
2024-03-05T12:10:51.001Z,4.70
2024-03-05T12:13:21.002Z,3.72
2024-03-05T12:15:49.430Z,3.92
2024-03-05T12:18:19.257Z,4.22
2024-03-05T12:20:48.661Z,4.10
2024-03-05T12:23:40.189Z,3.78
2024-03-05T12:26:06.894Z,4.20
2024-03-05T12:28:35.288Z,4.05
2024-03-05T12:31:04.210Z,4.10
2024-03-05T12:33:34.007Z,3.90
2024-03-05T12:36:02.637Z,4.03
2024-03-05T12:38:35.075Z,49.58
2024-03-05T12:41:03.929Z,91.47
2024-03-05T12:43:32.556Z,76.63
2024-03-05T12:46:03.590Z,59.95
2024-03-05T12:48:33.819Z,56.38
2024-03-05T12:51:02.432Z,53.17
2024-03-05T12:53:30.765Z,45.83
2024-03-05T12:56:03.414Z,39.40
2024-03-05T12:58:42.488Z,36.53
2024-03-05T13:01:11.980Z,29.70
2024-03-05T13:03:41.826Z,28.40
2024-03-05T13:06:12.362Z,25.88
2024-03-05T13:08:41.557Z,25.92
2024-03-05T13:11:09.948Z,23.45
2024-03-05T13:13:38.800Z,21.92
2024-03-05T13:16:08.034Z,19.38
2024-03-05T13:18:36.501Z,18.92
2024-03-05T13:21:07.190Z,14.27
2024-03-05T13:23:36.970Z,12.75
2024-03-05T13:26:05.932Z,13.25
2024-03-05T13:28:35.127Z,15.07
2024-03-05T13:31:07.071Z,14.48
2024-03-05T13:33:35.447Z,13.93
2024-03-05T13:36:05.806Z,13.15
2024-03-05T13:38:35.857Z,14.52
2024-03-05T13:41:04.674Z,13.95
2024-03-05T13:43:33.267Z,12.55
2024-03-05T13:46:01.859Z,13.35
2024-03-05T13:48:31.787Z,12.82
2024-03-05T13:51:00.229Z,11.75
2024-03-05T13:53:30.172Z,12.27
2024-03-05T13:55:58.571Z,12.63
2024-03-05T13:58:27.024Z,11.40
2024-03-05T14:00:57.927Z,11.63
2024-03-05T14:03:26.344Z,10.88
2024-03-05T14:05:55.032Z,13.05
2024-03-05T14:08:23.729Z,11.45
2024-03-05T14:10:53.601Z,10.60
2024-03-05T14:13:22.481Z,10.90
2024-03-05T14:15:53.205Z,9.40
2024-03-05T14:18:22.540Z,10.38
2024-03-05T14:20:52.233Z,10.00
2024-03-05T14:23:21.483Z,9.77
2024-03-05T14:25:50.067Z,9.13
2024-03-05T14:28:19.918Z,9.35
2024-03-05T14:30:48.424Z,9.48
2024-03-05T14:33:17.953Z,10.05
2024-03-05T14:35:48.381Z,9.75
2024-03-05T14:38:21.290Z,8.60
2024-03-05T14:40:51.825Z,9.18
2024-03-05T14:43:22.444Z,8.43
2024-03-05T14:45:51.719Z,8.93
2024-03-05T14:48:20.045Z,8.85
2024-03-05T14:50:49.578Z,8.55
2024-03-05T14:53:18.068Z,7.70
2024-03-05T14:55:46.771Z,8.85
2024-03-05T14:58:15.267Z,8.70
2024-03-05T15:00:45.457Z,8.75
2024-03-05T15:03:14.022Z,7.53
2024-03-05T15:05:43.421Z,8.10
2024-03-05T15:08:11.951Z,7.75
2024-03-05T15:10:40.628Z,7.05
2024-03-05T15:13:09.278Z,7.15
2024-03-05T15:15:38.461Z,6.25
2024-03-05T15:18:08.690Z,6.60
2024-03-05T15:20:37.169Z,7.05
2024-03-05T15:23:06.123Z,6.20
2024-03-05T15:25:36.454Z,6.03
2024-03-05T15:28:06.004Z,6.07
2024-03-05T15:30:35.886Z,5.38
2024-03-05T15:33:10.878Z,5.57
2024-03-05T15:35:40.295Z,5.22
2024-03-05T15:38:09.300Z,5.57
2024-03-05T15:40:38.887Z,5.95
2024-03-05T15:43:08.663Z,5.43
2024-03-05T15:45:38.935Z,4.82
2024-03-05T15:48:11.242Z,5.63
2024-03-05T15:50:42.357Z,5.63
2024-03-05T15:53:11.324Z,5.38
2024-03-05T15:55:43.947Z,5.05
2024-03-05T15:58:40.818Z,4.55
2024-03-05T16:01:08.547Z,4.60
2024-03-05T16:03:47.848Z,5.85
2024-03-05T16:06:27.727Z,5.45
2024-03-05T16:08:56.373Z,5.60
2024-03-05T16:11:26.679Z,5.53
2024-03-05T16:13:55.747Z,4.90
2024-03-05T16:16:25.000Z,5.18
2024-03-05T16:18:55.503Z,4.47
2024-03-05T16:21:25.178Z,5.03
2024-03-05T16:23:53.904Z,5.10
2024-03-05T16:26:22.570Z,4.45
2024-03-05T16:28:51.106Z,4.57
2024-03-05T16:31:19.677Z,5.40
2024-03-05T16:33:48.676Z,4.70
2024-03-05T16:36:18.619Z,4.80
2024-03-05T16:38:47.097Z,4.88
2024-03-05T16:41:15.699Z,5.15
2024-03-05T16:43:44.169Z,5.10
2024-03-05T16:46:12.669Z,5.00
2024-03-05T16:48:41.757Z,4.75
2024-03-05T16:51:10.133Z,4.68
2024-03-05T16:53:39.914Z,5.03
2024-03-05T16:56:09.217Z,5.03
2024-03-05T16:58:39.132Z,4.93
2024-03-05T17:01:13.609Z,4.43
2024-03-05T17:03:46.113Z,4.65
2024-03-05T17:06:17.217Z,5.25
2024-03-05T17:08:49.880Z,4.40
2024-03-05T17:11:19.485Z,5.15
2024-03-05T17:13:49.524Z,4.97
2024-03-05T17:16:19.721Z,4.47
2024-03-05T17:18:48.178Z,4.75
2024-03-05T17:21:18.147Z,4.75
2024-03-05T17:23:48.229Z,4.15
2024-03-05T17:26:17.237Z,5.18
2024-03-05T17:28:46.055Z,4.57
2024-03-05T17:31:14.519Z,4.90
2024-03-05T17:33:43.429Z,4.25
2024-03-05T17:36:12.166Z,4.47
2024-03-05T17:38:40.684Z,5.03
2024-03-05T17:41:10.670Z,4.60
2024-03-05T17:43:40.161Z,4.78
2024-03-05T17:46:10.702Z,5.43
2024-03-05T17:48:39.440Z,4.88
2024-03-05T17:51:11.293Z,5.18
2024-03-05T17:53:39.658Z,4.60
2024-03-05T17:56:12.463Z,5.20
2024-03-05T17:58:41.167Z,4.95
2024-03-05T18:01:12.518Z,4.72
2024-03-05T18:03:43.673Z,4.15
2024-03-05T18:06:17.344Z,4.50
2024-03-05T18:08:47.417Z,4.18
2024-03-05T18:11:17.480Z,4.38
2024-03-05T18:13:45.934Z,4.22
2024-03-05T18:16:14.844Z,4.78
2024-03-05T18:18:43.266Z,4.93
2024-03-05T18:21:14.301Z,4.40
2024-03-05T18:23:43.276Z,4.68
2024-03-05T18:26:13.191Z,4.93
2024-03-05T18:28:44.360Z,4.53
2024-03-05T18:31:17.260Z,4.57
2024-03-05T18:33:47.007Z,4.25
2024-03-05T18:36:16.783Z,4.05
2024-03-05T18:38:48.539Z,4.38
2024-03-05T18:41:16.983Z,4.10
2024-03-05T18:43:46.818Z,4.18
2024-03-05T18:46:16.695Z,4.18
2024-03-05T18:48:45.455Z,4.65
2024-03-05T18:51:15.081Z,4.38
2024-03-05T18:53:49.330Z,4.22
2024-03-05T18:56:18.667Z,4.22
2024-03-05T18:58:48.554Z,4.53
2024-03-05T19:01:17.084Z,4.45
2024-03-05T19:03:45.983Z,4.80
2024-03-05T19:06:15.088Z,5.10
2024-03-05T19:08:44.114Z,5.15
2024-03-05T19:11:14.007Z,4.40
2024-03-05T19:13:43.200Z,4.63
2024-03-05T19:16:15.367Z,4.47
2024-03-05T19:18:46.101Z,4.57
2024-03-05T19:21:16.310Z,4.00
2024-03-05T19:23:46.999Z,5.07
2024-03-05T19:26:15.672Z,4.85
2024-03-05T19:28:44.138Z,4.55
2024-03-05T19:31:14.753Z,4.05
2024-03-05T19:33:43.369Z,4.40
2024-03-05T19:36:13.780Z,4.20
2024-03-05T19:38:43.640Z,4.55
2024-03-05T19:41:12.466Z,4.38
2024-03-05T19:43:41.498Z,4.03
2024-03-05T19:46:10.066Z,4.22
2024-03-05T19:48:40.203Z,4.88
2024-03-05T19:51:12.967Z,4.80
2024-03-05T19:53:41.440Z,4.68
2024-03-05T19:56:11.059Z,4.22
2024-03-05T19:58:40.898Z,4.60
2024-03-05T20:01:09.916Z,4.47
2024-03-05T20:03:41.212Z,4.40
2024-03-05T20:06:10.180Z,4.38
2024-03-05T20:08:39.290Z,4.10
2024-03-05T20:11:12.361Z,4.25
2024-03-05T20:13:41.494Z,4.50
2024-03-05T20:16:10.565Z,4.13
2024-03-05T20:18:40.802Z,4.20
2024-03-05T20:21:10.141Z,4.03
2024-03-05T20:23:39.816Z,4.78
2024-03-05T20:26:09.159Z,4.10
2024-03-05T20:28:38.336Z,4.53
2024-03-05T20:31:08.801Z,4.47
2024-03-05T20:33:40.106Z,4.60
2024-03-05T20:36:10.838Z,4.43
2024-03-05T20:38:39.845Z,4.30
2024-03-05T20:41:09.519Z,3.92
2024-03-05T20:43:39.758Z,4.07
2024-03-05T20:46:10.618Z,4.40
2024-03-05T20:48:40.331Z,4.32
2024-03-05T20:51:08.744Z,4.90
2024-03-05T20:53:38.242Z,4.60
2024-03-05T20:56:08.196Z,4.10
2024-03-05T20:58:38.678Z,4.00
2024-03-05T21:01:07.252Z,3.92
2024-03-05T21:03:36.784Z,4.35
2024-03-05T21:06:07.858Z,3.95
2024-03-05T21:08:36.630Z,4.72
2024-03-05T21:11:05.769Z,3.97
2024-03-05T21:13:42.247Z,4.28
2024-03-05T21:16:11.549Z,4.18
2024-03-05T21:18:40.128Z,3.97
2024-03-05T21:21:15.061Z,4.45
2024-03-05T21:23:43.959Z,4.10
2024-03-05T21:26:27.369Z,4.38
2024-03-05T21:29:03.040Z,4.80
2024-03-05T21:31:36.955Z,4.20
2024-03-05T21:34:06.185Z,4.15
2024-03-05T21:36:37.402Z,4.13
2024-03-05T21:39:05.873Z,3.58
2024-03-05T21:41:35.149Z,4.57
2024-03-05T21:44:03.819Z,4.30
2024-03-05T21:46:32.460Z,3.70
2024-03-05T21:49:02.856Z,3.85
2024-03-05T21:51:31.934Z,3.90
2024-03-05T21:54:01.749Z,3.92
2024-03-05T21:56:30.074Z,4.07
2024-03-05T21:58:58.563Z,3.88
2024-03-05T22:01:27.368Z,3.92
2024-03-05T22:03:55.829Z,4.38
2024-03-05T22:06:25.036Z,4.03
2024-03-05T22:08:57.553Z,3.72
2024-03-05T22:11:28.756Z,3.85
2024-03-05T22:13:58.041Z,3.85
2024-03-05T22:16:26.396Z,3.70
2024-03-05T22:18:54.765Z,3.88
2024-03-05T22:21:23.053Z,3.88
2024-03-05T22:23:51.416Z,3.67
2024-03-05T22:26:19.928Z,3.63
2024-03-05T22:28:49.767Z,4.25
2024-03-05T22:31:18.189Z,3.22
2024-03-05T22:33:46.609Z,3.30
2024-03-05T22:36:15.724Z,3.53
2024-03-05T22:38:44.848Z,3.70
2024-03-05T22:41:13.278Z,3.65
2024-03-05T22:43:41.635Z,3.45
2024-03-05T22:46:11.411Z,3.65
2024-03-05T22:48:40.260Z,3.40
2024-03-05T22:51:10.169Z,3.63
2024-03-05T22:53:39.159Z,3.67
2024-03-05T22:56:09.378Z,3.50
2024-03-05T22:58:38.434Z,3.35
2024-03-05T23:01:07.550Z,3.38
2024-03-05T23:03:37.250Z,3.15
2024-03-05T23:06:11.994Z,3.28
2024-03-05T23:08:44.522Z,3.80
2024-03-05T23:11:13.055Z,3.50
2024-03-05T23:13:41.568Z,3.35
2024-03-05T23:16:09.947Z,3.40
2024-03-05T23:18:39.655Z,3.70
2024-03-05T23:21:10.787Z,3.30
2024-03-05T23:23:41.585Z,3.47
2024-03-05T23:26:10.069Z,3.47
2024-03-05T23:28:39.336Z,3.45
2024-03-05T23:31:08.042Z,4.45
2024-03-05T23:33:36.560Z,4.78
2024-03-05T23:36:07.473Z,4.50
2024-03-05T23:38:36.068Z,4.05
2024-03-05T23:41:06.541Z,4.80
2024-03-05T23:43:38.378Z,4.25
2024-03-05T23:46:07.640Z,3.58
2024-03-05T23:48:36.076Z,3.97
2024-03-05T23:51:07.525Z,3.85
2024-03-05T23:53:36.804Z,4.13
2024-03-05T23:56:05.413Z,4.03
2024-03-05T23:58:33.812Z,4.20
